Time;durP1;ratioP1;P1;durP2;ratioP2;P2;SDS_P1;SDS_P2;PMS_P1;PMS_P2;Temp;Humidity;BMP_temperature;BMP_pressure;BME280_temperature;BME280_humidity;BME280_pressure;Samples;Min_cycle;Max_cycle;Signal;HPM_P1;HPM_P2
2023/10/24 00:00:50;;;;;;;8.80;5.10;;;13.10;99.90;;;;;;7289009;19;20189;-79
2023/10/24 00:03:16;;;;;;;9.83;5.30;;;13.00;99.90;;;;;;7288915;19;20206;-79
2023/10/24 00:05:42;;;;;;;9.37;5.20;;;13.00;99.90;;;;;;7309117;19;20217;-79
2023/10/24 00:08:08;;;;;;;9.77;5.37;;;13.00;99.90;;;;;;7287075;19;20174;-80
2023/10/24 00:10:34;;;;;;;9.00;5.00;;;13.10;99.90;;;;;;7285644;19;20197;-79
2023/10/24 00:13:00;;;;;;;7.57;4.50;;;13.10;99.90;;;;;;7288659;19;20197;-79
2023/10/24 00:15:26;;;;;;;8.43;4.20;;;13.00;99.90;;;;;;7286340;19;20177;-79
2023/10/24 00:17:51;;;;;;;7.93;4.07;;;13.00;99.90;;;;;;7286083;19;20194;-79
2023/10/24 00:20:17;;;;;;;7.13;3.90;;;13.00;99.90;;;;;;7286786;19;20202;-79
2023/10/24 00:22:43;;;;;;;6.17;3.73;;;13.00;99.90;;;;;;7308823;19;20204;-79
2023/10/24 00:25:09;;;;;;;6.93;3.90;;;13.00;99.90;;;;;;7284843;19;20185;-79
2023/10/24 00:27:35;;;;;;;7.33;4.13;;;13.00;99.90;;;;;;7285499;19;20239;-79
2023/10/24 00:30:01;;;;;;;8.87;4.90;;;13.00;99.90;;;;;;7284125;19;20225;-79
2023/10/24 00:32:27;;;;;;;12.43;5.83;;;13.10;99.90;;;;;;7284301;19;20650;-79
2023/10/24 00:34:52;;;;;;;7.63;4.23;;;13.10;99.90;;;;;;7285645;19;20185;-79
2023/10/24 00:37:18;;;;;;;7.70;4.30;;;13.00;99.90;;;;;;7284812;19;20575;-78
2023/10/24 00:39:44;;;;;;;7.17;4.03;;;12.90;99.90;;;;;;7307782;19;20192;-79
2023/10/24 00:42:10;;;;;;;6.77;4.10;;;12.90;99.90;;;;;;7284695;19;20523;-79
2023/10/24 00:44:35;;;;;;;9.17;4.50;;;12.80;99.90;;;;;;7286777;19;20188;-78
2023/10/24 00:47:02;;;;;;;7.93;4.57;;;12.80;99.90;;;;;;7286875;19;20225;-78
2023/10/24 00:49:28;;;;;;;7.77;4.80;;;12.80;99.90;;;;;;7283266;19;20193;-79
2023/10/24 00:51:55;;;;;;;8.40;5.00;;;12.80;99.90;;;;;;7283018;19;20195;-79
2023/10/24 00:54:22;;;;;;;8.07;4.70;;;12.80;99.90;;;;;;7282895;19;20230;-79
2023/10/24 00:56:50;;;;;;;8.60;4.70;;;12.80;99.90;;;;;;7280530;19;20305;-79
2023/10/24 00:59:19;;;;;;;7.87;4.43;;;12.70;99.90;;;;;;7295889;19;20207;-78
2023/10/24 01:01:45;;;;;;;8.50;4.83;;;12.60;99.90;;;;;;7301253;19;20193;-79
2023/10/24 01:04:12;;;;;;;8.03;4.13;;;12.60;99.90;;;;;;7296162;19;20218;-78
2023/10/24 01:06:38;;;;;;;8.07;4.60;;;12.60;99.90;;;;;;7286849;19;20194;-79
2023/10/24 01:09:05;;;;;;;7.43;4.47;;;12.60;99.90;;;;;;7284616;19;20542;-79
2023/10/24 01:11:32;;;;;;;8.97;4.97;;;12.60;99.90;;;;;;7286471;19;20269;-79
2023/10/24 01:14:01;;;;;;;8.97;5.30;;;12.60;99.90;;;;;;7285142;19;20192;-79
2023/10/24 01:16:28;;;;;;;8.87;5.47;;;12.60;99.90;;;;;;7284472;19;20189;-79
2023/10/24 01:18:54;;;;;;;8.93;5.27;;;12.70;99.90;;;;;;7284781;19;20181;-79
2023/10/24 01:21:19;;;;;;;12.50;5.83;;;12.70;99.90;;;;;;7287167;19;20182;-79
2023/10/24 01:23:46;;;;;;;8.90;5.73;;;12.70;99.90;;;;;;7298272;19;20181;-78
2023/10/24 01:26:16;;;;;;;11.77;5.67;;;12.70;99.90;;;;;;7304493;19;20193;-79
2023/10/24 01:28:42;;;;;;;11.87;6.17;;;12.60;99.90;;;;;;7285168;19;20289;-79
2023/10/24 01:31:08;;;;;;;10.50;5.90;;;12.60;99.90;;;;;;7285289;19;20192;-79
2023/10/24 01:33:33;;;;;;;10.00;6.03;;;12.60;99.90;;;;;;7283746;19;20184;-79
2023/10/24 01:35:59;;;;;;;12.27;6.67;;;12.50;99.90;;;;;;7284746;19;20189;-79
2023/10/24 01:38:26;;;;;;;10.10;6.23;;;12.60;99.90;;;;;;7283794;19;20212;-79
2023/10/24 01:40:51;;;;;;;11.57;6.43;;;12.50;99.90;;;;;;7284951;19;20279;-79
2023/10/24 01:43:17;;;;;;;10.67;6.47;;;12.60;99.90;;;;;;7283699;19;20184;-79
2023/10/24 01:45:43;;;;;;;12.45;7.40;;;12.70;99.90;;;;;;7304926;19;20734;-80
2023/10/24 01:48:09;;;;;;;12.43;6.87;;;12.70;99.90;;;;;;7282612;19;20572;-79
2023/10/24 01:50:35;;;;;;;12.50;6.60;;;12.80;99.90;;;;;;7283407;19;20228;-79
2023/10/24 01:53:01;;;;;;;12.17;6.50;;;12.90;99.90;;;;;;7282282;19;20228;-78
2023/10/24 01:55:27;;;;;;;10.20;5.63;;;12.90;99.90;;;;;;7282313;19;20197;-79
2023/10/24 01:57:52;;;;;;;10.80;6.13;;;12.90;99.90;;;;;;7282331;19;20282;-79
2023/10/24 02:00:19;;;;;;;9.97;5.53;;;12.90;99.90;;;;;;7284095;19;20193;-78
2023/10/24 02:02:44;;;;;;;11.47;5.53;;;12.80;99.90;;;;;;7304739;19;20281;-78
2023/10/24 02:05:12;;;;;;;10.73;5.60;;;12.90;99.90;;;;;;7285501;19;21036;-79
2023/10/24 02:07:38;;;;;;;9.17;5.30;;;13.00;99.90;;;;;;7285583;19;20260;-78
2023/10/24 02:10:05;;;;;;;8.47;5.20;;;13.00;99.90;;;;;;7283146;19;20654;-79
2023/10/24 02:12:31;;;;;;;8.83;4.67;;;13.00;99.90;;;;;;7284324;19;20434;-78
2023/10/24 02:14:57;;;;;;;9.37;4.73;;;13.00;99.90;;;;;;7282847;19;20189;-78
2023/10/24 02:17:22;;;;;;;7.67;4.53;;;13.00;99.90;;;;;;7281993;19;20186;-78
2023/10/24 02:19:49;;;;;;;8.70;4.43;;;13.00;99.90;;;;;;7283706;19;20194;-79
2023/10/24 02:22:15;;;;;;;8.17;4.33;;;13.10;99.90;;;;;;7304298;19;20196;-78
2023/10/24 02:24:41;;;;;;;9.03;4.43;;;13.20;99.90;;;;;;7294652;19;20199;-79
2023/10/24 02:27:06;;;;;;;7.67;4.23;;;13.30;99.90;;;;;;7284404;19;20175;-79
2023/10/24 02:29:35;;;;;;;7.23;4.20;;;13.30;99.90;;;;;;7281994;19;20249;-79
2023/10/24 02:32:02;;;;;;;8.40;4.17;;;13.30;99.90;;;;;;7285149;19;20194;-78
2023/10/24 02:34:28;;;;;;;7.57;4.30;;;13.20;99.90;;;;;;7283381;19;20194;-78
2023/10/24 02:36:54;;;;;;;6.43;3.90;;;13.10;99.90;;;;;;7281720;19;20206;-79
2023/10/24 02:39:20;;;;;;;8.27;4.40;;;13.10;99.90;;;;;;7283901;19;20217;-78
2023/10/24 02:41:46;;;;;;;7.00;4.20;;;13.00;99.90;;;;;;7291402;19;20224;-79
2023/10/24 02:44:12;;;;;;;8.10;4.53;;;13.10;99.90;;;;;;7306974;19;20195;-79
2023/10/24 02:46:38;;;;;;;7.37;4.33;;;13.10;99.90;;;;;;7282977;19;20303;-78
2023/10/24 02:49:04;;;;;;;7.83;4.40;;;13.10;99.90;;;;;;7283186;19;20649;-79
2023/10/24 02:51:30;;;;;;;8.40;4.60;;;13.10;99.90;;;;;;7281768;19;20698;-79
2023/10/24 02:53:56;;;;;;;7.93;4.73;;;13.10;99.90;;;;;;7281471;19;20195;-79
2023/10/24 02:56:21;;;;;;;10.43;5.00;;;13.20;99.90;;;;;;7280355;19;20656;-79
2023/10/24 02:58:47;;;;;;;8.57;5.00;;;13.20;99.90;;;;;;7280902;19;20200;-79
2023/10/24 03:01:13;;;;;;;9.00;4.90;;;13.20;99.90;;;;;;7304913;19;20195;-78
2023/10/24 03:03:39;;;;;;;9.07;5.40;;;13.20;99.90;;;;;;7281724;19;20186;-78
2023/10/24 03:06:14;;;;;;;9.93;5.40;;;13.30;99.90;;;;;;7283303;19;20278;-79
2023/10/24 03:08:40;;;;;;;11.80;5.80;;;13.40;99.90;;;;;;7282897;19;20200;-79
2023/10/24 03:11:06;;;;;;;10.27;6.00;;;13.40;99.90;;;;;;7280249;19;21010;-79
2023/10/24 03:13:32;;;;;;;11.33;6.43;;;13.40;99.90;;;;;;7282434;19;20201;-79
2023/10/24 03:16:04;;;;;;;11.63;6.70;;;13.40;99.90;;;;;;7282119;19;20198;-79
2023/10/24 03:18:30;;;;;;;11.57;6.87;;;13.40;99.90;;;;;;7284048;19;20256;-79
2023/10/24 03:20:57;;;;;;;13.20;6.83;;;13.50;99.90;;;;;;7280393;19;20550;-79
2023/10/24 03:23:23;;;;;;;13.63;7.23;;;13.50;99.90;;;;;;7283392;19;20249;-79
2023/10/24 03:25:50;;;;;;;12.43;7.13;;;13.50;99.90;;;;;;7288534;19;20218;-79
2023/10/24 03:28:15;;;;;;;12.50;7.20;;;13.50;99.90;;;;;;7304612;19;20189;-78
2023/10/24 03:30:41;;;;;;;11.73;7.10;;;13.40;99.90;;;;;;7303156;19;20262;-78
2023/10/24 03:33:09;;;;;;;13.93;7.73;;;13.50;99.90;;;;;;7287932;19;20185;-78
2023/10/24 03:35:35;;;;;;;13.80;8.57;;;13.50;99.90;;;;;;7286989;19;20209;-79
2023/10/24 03:38:02;;;;;;;14.10;8.70;;;13.50;99.90;;;;;;7288020;19;20664;-79
2023/10/24 03:40:28;;;;;;;15.13;8.40;;;13.50;99.90;;;;;;7288131;19;20532;-78
2023/10/24 03:42:54;;;;;;;15.03;8.10;;;13.50;99.90;;;;;;7286896;19;20194;-79
2023/10/24 03:45:20;;;;;;;17.30;8.90;;;13.50;99.90;;;;;;7286254;19;20224;-79
2023/10/24 03:47:50;;;;;;;18.30;9.07;;;13.40;99.90;;;;;;7296841;19;20730;-78
2023/10/24 03:50:16;;;;;;;13.20;8.87;;;13.50;99.90;;;;;;7297584;19;20205;-78
2023/10/24 03:52:42;;;;;;;15.30;9.20;;;13.50;99.90;;;;;;7306324;19;20191;-78
2023/10/24 03:55:11;;;;;;;16.93;9.23;;;13.50;99.90;;;;;;7286619;19;20210;-79
2023/10/24 03:57:40;;;;;;;16.33;9.67;;;13.40;99.90;;;;;;7286267;19;20680;-78
2023/10/24 04:00:10;;;;;;;16.50;9.37;;;13.40;99.90;;;;;;7289888;19;20209;-79
2023/10/24 04:02:38;;;;;;;16.07;9.80;;;13.40;99.90;;;;;;7286857;19;20192;-78
2023/10/24 04:05:06;;;;;;;19.40;10.33;;;13.30;99.90;;;;;;7288558;19;20203;-78
2023/10/24 04:07:32;;;;;;;20.33;10.87;;;13.30;99.90;;;;;;7287123;19;20522;-78
2023/10/24 04:09:58;;;;;;;18.07;10.43;;;13.30;99.90;;;;;;7284592;19;20672;-78
2023/10/24 04:12:24;;;;;;;16.90;10.53;;;13.40;99.90;;;;;;7288075;19;20214;-79
2023/10/24 04:14:50;;;;;;;17.73;11.10;;;13.30;99.90;;;;;;7287564;19;20182;-78
2023/10/24 04:17:15;;;;;;;17.60;10.40;;;13.40;99.90;;;;;;7305575;19;20189;-78
2023/10/24 04:19:41;;;;;;;19.13;11.43;;;13.40;99.90;;;;;;7300304;19;20187;-79
2023/10/24 04:22:07;;;;;;;19.10;11.73;;;13.40;99.90;;;;;;7286493;19;20194;-78
2023/10/24 04:24:33;;;;;;;19.03;11.30;;;13.40;99.90;;;;;;7287860;19;20196;-78
2023/10/24 04:26:59;;;;;;;17.73;11.23;;;13.40;99.90;;;;;;7285807;19;20264;-78
2023/10/24 04:29:25;;;;;;;20.50;11.23;;;13.40;99.90;;;;;;7286439;19;20190;-78
2023/10/24 04:31:51;;;;;;;22.13;12.77;;;13.40;99.90;;;;;;7285211;19;20252;-79
2023/10/24 04:34:16;;;;;;;20.50;11.80;;;13.40;99.90;;;;;;7290211;19;20649;-78
2023/10/24 04:36:42;;;;;;;22.83;12.10;;;13.30;99.90;;;;;;7307046;19;20210;-79
2023/10/24 04:39:08;;;;;;;18.50;11.23;;;13.20;99.90;;;;;;7284948;19;20189;-78
2023/10/24 04:41:34;;;;;;;19.30;11.43;;;13.20;99.90;;;;;;7286456;19;20197;-79
2023/10/24 04:43:59;;;;;;;19.97;11.13;;;13.10;99.90;;;;;;7288529;19;20264;-79
2023/10/24 04:46:25;;;;;;;18.77;11.40;;;13.10;99.90;;;;;;7286740;19;20186;-79
2023/10/24 04:48:51;;;;;;;18.73;10.60;;;13.10;99.90;;;;;;7287502;19;20202;-79
2023/10/24 04:51:17;;;;;;;18.40;10.63;;;13.10;99.90;;;;;;7287446;19;20195;-79
2023/10/24 04:53:42;;;;;;;18.00;11.13;;;13.10;99.90;;;;;;7310502;19;20212;-78
2023/10/24 04:56:08;;;;;;;19.67;10.50;;;13.10;99.90;;;;;;7286682;19;20190;-79
2023/10/24 04:58:35;;;;;;;18.90;10.93;;;13.20;99.90;;;;;;7288324;19;20542;-79
2023/10/24 05:01:00;;;;;;;17.60;10.80;;;13.30;99.90;;;;;;7285679;19;20660;-79
2023/10/24 05:03:26;;;;;;;16.70;10.00;;;13.30;99.90;;;;;;7288039;19;20193;-78
2023/10/24 05:05:52;;;;;;;18.80;10.70;;;13.20;99.90;;;;;;7287809;19;20209;-79
2023/10/24 05:08:18;;;;;;;19.07;10.50;;;13.20;99.90;;;;;;7292701;19;20182;-78
2023/10/24 05:10:46;;;;;;;19.57;11.30;;;13.10;99.90;;;;;;7310250;19;20223;-79
2023/10/24 05:13:12;;;;;;;18.77;11.10;;;13.20;99.90;;;;;;7290061;19;20208;-80
2023/10/24 05:15:37;;;;;;;17.03;10.10;;;13.10;99.90;;;;;;7285943;19;20194;-78
2023/10/24 05:18:03;;;;;;;17.03;10.20;;;12.90;99.90;;;;;;7286449;19;20202;-80
2023/10/24 05:20:29;;;;;;;19.50;10.93;;;12.80;99.90;;;;;;7283170;19;20204;-81
2023/10/24 05:22:55;;;;;;;18.67;9.83;;;12.60;99.90;;;;;;7286522;19;20189;-81
2023/10/24 05:25:21;;;;;;;17.63;9.33;;;12.60;99.90;;;;;;7286835;19;20192;-81
2023/10/24 05:27:46;;;;;;;18.33;10.30;;;12.60;99.90;;;;;;7295224;19;20272;-81
2023/10/24 05:30:12;;;;;;;18.53;9.60;;;12.60;99.90;;;;;;7309856;19;20177;-81
2023/10/24 05:32:38;;;;;;;19.20;8.87;;;12.60;99.90;;;;;;7286796;19;20181;-81
2023/10/24 05:35:04;;;;;;;15.33;9.07;;;12.50;99.90;;;;;;7288466;19;20213;-81
2023/10/24 05:37:31;;;;;;;14.43;8.07;;;12.50;99.90;;;;;;7286673;19;20262;-81
2023/10/24 05:39:57;;;;;;;16.20;8.60;;;12.50;99.90;;;;;;7284152;19;20217;-81
2023/10/24 05:42:22;;;;;;;18.93;9.27;;;12.50;99.90;;;;;;7287219;19;20182;-81
2023/10/24 05:44:48;;;;;;;15.13;8.63;;;12.50;99.90;;;;;;7287727;19;20186;-81
2023/10/24 05:47:14;;;;;;;15.80;8.37;;;12.50;99.90;;;;;;7311418;19;20182;-81
2023/10/24 05:49:40;;;;;;;15.50;8.83;;;12.50;99.90;;;;;;7291272;19;20189;-82
2023/10/24 05:52:06;;;;;;;15.47;8.60;;;12.50;99.90;;;;;;7293025;19;20185;-82
2023/10/24 05:54:32;;;;;;;16.67;7.90;;;12.50;99.90;;;;;;7287821;19;20185;-82
2023/10/24 05:56:58;;;;;;;14.27;8.07;;;12.60;99.90;;;;;;7285220;19;20196;-81
2023/10/24 05:59:26;;;;;;;15.48;9.75;;;12.70;99.90;;;;;;7282244;19;20724;-78
2023/10/24 06:01:52;;;;;;;14.57;7.50;;;12.70;99.90;;;;;;7283725;19;20261;-80
2023/10/24 06:04:18;;;;;;;13.30;7.13;;;12.70;99.90;;;;;;7281466;19;20556;-80
2023/10/24 06:06:43;;;;;;;12.67;7.53;;;12.80;99.90;;;;;;7308671;19;20289;-81
2023/10/24 06:09:12;;;;;;;14.23;7.63;;;12.90;99.90;;;;;;7285401;19;20189;-81
2023/10/24 06:11:41;;;;;;;14.57;7.30;;;12.90;99.90;;;;;;7286837;19;20246;-81
2023/10/24 06:14:06;;;;;;;13.77;7.33;;;12.90;99.90;;;;;;7284615;19;20248;-81
2023/10/24 06:16:32;;;;;;;15.67;7.97;;;12.90;99.90;;;;;;7283092;19;20207;-81
2023/10/24 06:18:59;;;;;;;13.83;7.63;;;12.90;99.90;;;;;;7284054;19;20185;-81
2023/10/24 06:21:26;;;;;;;14.63;7.97;;;12.90;99.90;;;;;;7284992;19;20193;-80
2023/10/24 06:23:53;;;;;;;15.50;8.23;;;12.90;99.90;;;;;;7283776;19;20632;-81
2023/10/24 06:26:19;;;;;;;13.83;7.77;;;13.00;99.90;;;;;;7283124;19;20195;-80
2023/10/24 06:28:45;;;;;;;13.07;7.60;;;12.90;99.90;;;;;;7306216;19;20310;-80
2023/10/24 06:31:12;;;;;;;16.67;7.30;;;12.90;99.90;;;;;;7282640;19;20200;-80
2023/10/24 06:33:40;;;;;;;15.10;8.20;;;13.00;99.90;;;;;;7282403;19;20220;-80
2023/10/24 06:36:06;;;;;;;14.20;6.97;;;13.00;99.90;;;;;;7283089;19;20203;-80
2023/10/24 06:38:32;;;;;;;13.90;7.73;;;13.10;99.90;;;;;;7281878;19;20847;-83
2023/10/24 06:40:58;;;;;;;11.77;7.20;;;13.20;99.90;;;;;;7281279;19;20197;-81
2023/10/24 06:43:26;;;;;;;12.17;7.10;;;13.30;99.90;;;;;;7281988;19;20639;-82
2023/10/24 06:45:51;;;;;;;12.27;6.93;;;13.40;99.90;;;;;;7283091;19;20536;-82
2023/10/24 06:48:18;;;;;;;13.60;6.53;;;13.30;99.90;;;;;;7284862;19;20273;-82
2023/10/24 06:50:44;;;;;;;10.70;6.63;;;13.20;99.90;;;;;;7306165;19;20225;-83
2023/10/24 06:53:11;;;;;;;13.87;6.60;;;13.30;99.90;;;;;;7286417;19;20198;-82
2023/10/24 06:55:38;;;;;;;14.40;7.10;;;13.30;99.90;;;;;;7286585;19;20645;-82
2023/10/24 06:58:04;;;;;;;14.27;6.53;;;13.40;99.90;;;;;;7287426;19;20185;-82
2023/10/24 07:00:31;;;;;;;13.53;6.80;;;13.50;99.90;;;;;;7294429;19;20550;-82
2023/10/24 07:02:57;;;;;;;11.60;6.03;;;13.60;99.90;;;;;;7294503;19;20198;-82
2023/10/24 07:05:23;;;;;;;11.80;5.93;;;13.70;99.90;;;;;;7293455;19;20218;-82
2023/10/24 07:07:49;;;;;;;13.37;6.30;;;13.80;99.90;;;;;;7293248;19;20198;-82
2023/10/24 07:10:14;;;;;;;15.47;11.37;;;14.00;99.90;;;;;;7304426;19;20281;-80
2023/10/24 07:12:40;;;;;;;12.53;6.30;;;14.10;99.90;;;;;;7286353;19;20195;-81
2023/10/24 07:15:08;;;;;;;11.57;6.17;;;14.20;99.90;;;;;;7291036;19;20212;-81
2023/10/24 07:17:34;;;;;;;11.53;6.77;;;14.20;99.90;;;;;;7292978;19;20203;-80
2023/10/24 07:20:00;;;;;;;13.90;7.03;;;14.20;99.90;;;;;;7295475;19;20527;-81
2023/10/24 07:22:27;;;;;;;14.17;7.50;;;14.20;99.90;;;;;;7293091;19;20287;-81
2023/10/24 07:24:53;;;;;;;14.67;7.67;;;14.30;99.90;;;;;;7293781;19;20262;-80
2023/10/24 07:27:19;;;;;;;12.63;7.33;;;14.30;99.90;;;;;;7291269;19;20224;-80
2023/10/24 07:29:45;;;;;;;15.20;8.00;;;14.30;99.90;;;;;;7311589;19;20190;-81
2023/10/24 07:32:12;;;;;;;13.80;7.47;;;14.40;99.90;;;;;;7291918;19;20192;-81
2023/10/24 07:34:41;;;;;;;15.17;7.90;;;14.50;99.90;;;;;;7288675;19;20686;-81
2023/10/24 07:37:10;;;;;;;16.17;8.07;;;14.60;99.90;;;;;;7291014;19;20185;-81
2023/10/24 07:39:37;;;;;;;15.43;9.20;;;14.60;99.90;;;;;;7290016;19;20227;-81
2023/10/24 07:42:03;;;;;;;15.07;9.10;;;14.70;99.90;;;;;;7291108;19;20188;-81
2023/10/24 07:44:29;;;;;;;16.97;9.90;;;14.60;99.90;;;;;;7290881;19;20193;-80
2023/10/24 07:46:55;;;;;;;17.80;10.20;;;14.70;99.90;;;;;;7289637;19;20196;-81
2023/10/24 07:49:21;;;;;;;17.63;9.33;;;14.70;99.90;;;;;;7288684;19;20192;-80
2023/10/24 07:51:47;;;;;;;15.77;8.87;;;14.70;99.90;;;;;;7298881;19;20187;-80
2023/10/24 07:54:13;;;;;;;14.03;8.40;;;14.70;99.90;;;;;;7312433;19;20191;-81
2023/10/24 07:56:39;;;;;;;16.07;9.00;;;14.70;99.90;;;;;;7287650;19;20203;-80
2023/10/24 07:59:05;;;;;;;16.33;9.23;;;14.70;99.90;;;;;;7288577;19;20181;-81
2023/10/24 08:01:31;;;;;;;16.13;9.93;;;14.80;99.90;;;;;;7290053;19;20199;-81
2023/10/24 08:03:57;;;;;;;15.70;9.27;;;14.60;99.90;;;;;;7288738;19;20224;-80
2023/10/24 08:06:23;;;;;;;19.53;9.87;;;14.70;99.90;;;;;;7290062;19;20191;-80
2023/10/24 08:08:49;;;;;;;15.97;10.17;;;14.80;99.90;;;;;;7287871;19;20185;-80
2023/10/24 08:11:14;;;;;;;16.47;10.30;;;14.80;99.90;;;;;;7308218;19;20286;-80
2023/10/24 08:13:40;;;;;;;18.50;10.77;;;14.70;99.90;;;;;;7285049;19;20693;-80
2023/10/24 08:16:07;;;;;;;19.03;12.00;;;14.60;99.90;;;;;;7288563;19;20197;-80
2023/10/24 08:18:34;;;;;;;20.93;12.50;;;14.60;99.90;;;;;;7289525;19;20688;-81
2023/10/24 08:21:00;;;;;;;23.53;13.03;;;14.60;99.90;;;;;;7290104;19;20601;-80
2023/10/24 08:23:29;;;;;;;20.87;12.90;;;14.60;99.90;;;;;;7287617;19;20199;-81
2023/10/24 08:25:56;;;;;;;21.57;12.57;;;14.60;99.90;;;;;;7288707;19;20185;-79
2023/10/24 08:28:23;;;;;;;22.53;12.13;;;14.30;99.90;;;;;;7288879;19;20199;-80
2023/10/24 08:30:48;;;;;;;20.83;12.13;;;14.10;99.90;;;;;;7288268;19;20190;-80
2023/10/24 08:33:15;;;;;;;19.37;11.27;;;14.00;99.90;;;;;;7308619;19;20190;-81
2023/10/24 08:35:41;;;;;;;19.53;11.20;;;14.00;99.90;;;;;;7287536;19;20195;-81
2023/10/24 08:38:06;;;;;;;15.43;10.03;;;13.90;99.90;;;;;;7288890;19;20180;-81
2023/10/24 08:40:32;;;;;;;16.90;9.80;;;13.80;99.90;;;;;;7287091;19;20205;-80
2023/10/24 08:42:58;;;;;;;14.67;9.50;;;13.80;99.90;;;;;;7286469;19;20651;-81
2023/10/24 08:45:25;;;;;;;15.07;9.17;;;13.70;99.90;;;;;;7289880;19;20249;-80
2023/10/24 08:47:53;;;;;;;15.57;9.13;;;13.70;99.90;;;;;;7289889;19;20181;-81
2023/10/24 08:50:19;;;;;;;15.27;9.30;;;13.80;99.90;;;;;;7286722;19;20262;-81
2023/10/24 08:52:45;;;;;;;17.77;8.70;;;13.80;99.90;;;;;;7314489;19;20240;-80
2023/10/24 08:55:12;;;;;;;14.17;8.83;;;14.00;99.90;;;;;;7288552;19;20182;-80
2023/10/24 08:57:46;;;;;;;16.70;8.80;;;14.10;99.90;;;;;;7287854;19;20198;-80
2023/10/24 09:00:13;;;;;;;15.00;8.67;;;14.20;99.90;;;;;;7290136;19;20208;-80
2023/10/24 09:02:41;;;;;;;14.30;8.20;;;14.20;99.90;;;;;;7285613;19;20177;-80
2023/10/24 09:05:12;;;;;;;12.83;7.37;;;14.20;99.90;;;;;;7286776;19;20588;-80
2023/10/24 09:07:38;;;;;;;13.20;7.37;;;14.20;99.90;;;;;;7287158;19;20192;-81
2023/10/24 09:10:04;;;;;;;10.97;6.30;;;14.20;99.90;;;;;;7286310;19;20259;-81
2023/10/24 09:12:31;;;;;;;11.37;6.67;;;14.10;99.90;;;;;;7285959;19;20196;-81
2023/10/24 09:14:58;;;;;;;14.10;6.93;;;14.20;99.90;;;;;;7286962;19;20875;-81
2023/10/24 09:17:24;;;;;;;11.50;6.63;;;14.30;99.90;;;;;;7285237;19;20186;-81
2023/10/24 09:19:50;;;;;;;10.90;6.20;;;14.40;99.90;;;;;;7285219;19;20291;-80
2023/10/24 09:22:17;;;;;;;10.93;5.87;;;14.40;99.90;;;;;;7298583;19;20193;-80
2023/10/24 09:24:47;;;;;;;10.77;6.20;;;14.40;99.90;;;;;;7308871;19;20187;-81
2023/10/24 09:27:14;;;;;;;12.70;6.90;;;14.40;99.90;;;;;;7287290;19;20246;-81
2023/10/24 09:29:40;;;;;;;10.23;5.77;;;14.40;99.90;;;;;;7284452;19;20288;-81
2023/10/24 09:32:07;;;;;;;9.97;5.10;;;14.40;99.90;;;;;;7286406;19;20734;-81
2023/10/24 09:34:33;;;;;;;9.83;5.23;;;14.20;99.90;;;;;;7286415;19;20193;-81
2023/10/24 09:37:06;;;;;;;10.03;5.10;;;14.20;99.90;;;;;;7286552;19;20199;-81
2023/10/24 09:39:32;;;;;;;9.57;4.90;;;14.20;99.90;;;;;;7284205;19;20207;-81
2023/10/24 09:41:58;;;;;;;9.97;4.90;;;14.30;99.90;;;;;;7287639;19;20217;-82
2023/10/24 09:44:26;;;;;;;10.33;4.43;;;14.30;99.90;;;;;;7284145;19;20196;-82
2023/10/24 09:46:53;;;;;;;10.10;4.90;;;14.30;99.90;;;;;;7285555;19;20655;-81
2023/10/24 09:49:20;;;;;;;10.97;5.13;;;14.40;99.90;;;;;;7286059;19;20655;-81
2023/10/24 09:51:46;;;;;;;12.93;5.53;;;14.50;99.90;;;;;;7301992;19;20195;-81
2023/10/24 09:54:12;;;;;;;12.27;6.90;;;14.40;99.90;;;;;;7298484;19;20712;-81
2023/10/24 09:56:39;;;;;;;11.13;5.67;;;14.40;99.90;;;;;;7285106;19;20681;-81
2023/10/24 09:59:06;;;;;;;10.57;5.83;;;14.40;99.90;;;;;;7285340;19;20191;-81
2023/10/24 10:01:32;;;;;;;8.43;4.10;;;14.30;99.90;;;;;;7285460;19;20198;-81
2023/10/24 10:04:00;;;;;;;7.80;3.30;;;14.20;99.90;;;;;;7283884;19;20258;-81
2023/10/24 10:06:30;;;;;;;4.97;2.40;;;14.20;99.90;;;;;;7285544;19;20215;-81
2023/10/24 10:08:59;;;;;;;5.27;1.93;;;14.20;99.90;;;;;;7284262;19;20183;-81
2023/10/24 10:11:30;;;;;;;6.27;2.10;;;14.20;99.90;;;;;;7285826;19;20203;-81
2023/10/24 10:14:09;;;;;;;4.63;1.70;;;14.20;99.90;;;;;;7285856;19;20200;-81
2023/10/24 10:16:40;;;;;;;4.20;1.60;;;14.20;99.90;;;;;;7285186;19;20202;-80
2023/10/24 10:19:27;;;;;;;8.60;1.70;;;14.20;99.90;;;;;;7285452;19;21077;-81
2023/10/24 10:22:14;;;;;;;2.83;1.50;;;14.20;99.90;;;;;;7183443;19;2004579;-81
2023/10/24 10:25:12;;;;;;;3.20;1.50;;;14.30;99.90;;;;;;7284360;19;20187;-81
2023/10/24 10:28:10;;;;;;;5.50;2.83;;;14.10;99.90;;;;;;7182701;19;2004785;-81
2023/10/24 10:30:46;;;;;;;4.87;1.80;;;13.90;99.90;;;;;;7181362;19;2006471;-81
2023/10/24 10:33:17;;;;;;;6.40;2.00;;;13.90;99.90;;;;;;7284548;19;20212;-81
2023/10/24 10:35:51;;;;;;;5.00;2.13;;;14.00;99.90;;;;;;7285008;19;20298;-81
2023/10/24 10:38:38;;;;;;;7.53;2.20;;;14.20;99.90;;;;;;7277610;19;20205;-81
2023/10/24 10:41:22;;;;;;;7.43;2.60;;;14.20;99.90;;;;;;7283667;19;20192;-81
2023/10/24 10:43:53;;;;;;;6.13;2.67;;;14.30;99.90;;;;;;7262880;19;20205;-81
2023/10/24 10:46:25;;;;;;;5.90;2.37;;;14.40;99.90;;;;;;7282701;19;20195;-81
2023/10/24 10:48:52;;;;;;;7.03;3.20;;;14.50;99.90;;;;;;7281458;19;20215;-81
2023/10/24 10:51:22;;;;;;;6.43;2.73;;;14.50;99.90;;;;;;7283447;19;20580;-80
2023/10/24 10:54:08;;;;;;;6.40;3.00;;;14.60;99.90;;;;;;7289686;19;20198;-80
2023/10/24 10:56:37;;;;;;;5.67;2.50;;;15.00;99.90;;;;;;7283069;19;20221;-82
2023/10/24 10:59:11;;;;;;;3.77;2.20;;;15.50;99.90;;;;;;7282192;19;20184;-81
2023/10/24 11:01:47;;;;;;;4.80;1.93;;;15.80;99.90;;;;;;7283861;19;20184;-81
2023/10/24 11:04:14;;;;;;;4.70;1.70;;;15.90;99.90;;;;;;7282641;19;20770;-81
2023/10/24 11:06:56;;;;;;;4.00;1.47;;;17.30;99.90;;;;;;7283572;19;20243;-81
2023/10/24 11:09:44;;;;;;;3.87;1.33;;;18.90;99.90;;;;;;7178382;19;2004603;-81
2023/10/24 11:12:22;;;;;;;4.93;1.40;;;19.00;99.90;;;;;;7283940;19;20195;-82
2023/10/24 11:15:13;;;;;;;3.33;1.10;;;19.50;99.90;;;;;;7260310;19;20203;-81
2023/10/24 11:17:40;;;;;;;2.10;1.30;;;19.80;99.90;;;;;;7284655;19;20192;-81
2023/10/24 11:20:09;;;;;;;3.37;1.37;;;19.30;99.90;;;;;;7284235;19;20195;-81
2023/10/24 11:22:38;;;;;;;3.07;1.23;;;19.40;99.90;;;;;;7281577;19;20195;-81
2023/10/24 11:25:15;;;;;;;3.30;1.30;;;19.80;99.90;;;;;;7282540;19;20532;-81
2023/10/24 11:27:41;;;;;;;4.00;1.40;;;19.80;99.90;;;;;;7284487;19;20184;-81
2023/10/24 11:30:08;;;;;;;4.37;1.63;;;19.60;99.90;;;;;;7281394;19;20194;-81
2023/10/24 11:32:34;;;;;;;5.93;1.50;;;19.10;99.90;;;;;;7284162;19;20197;-81
2023/10/24 11:35:03;;;;;;;3.17;1.73;;;18.60;99.90;;;;;;7284093;19;20205;-81
2023/10/24 11:37:29;;;;;;;5.30;1.90;;;18.40;99.90;;;;;;7284302;19;20566;-81
2023/10/24 11:39:57;;;;;;;4.60;2.00;;;18.10;99.90;;;;;;7281907;19;20248;-81
2023/10/24 11:42:23;;;;;;;4.93;1.50;;;18.10;99.90;;;;;;7284053;19;20184;-81
2023/10/24 11:44:49;;;;;;;5.60;1.80;;;18.30;99.90;;;;;;7285002;19;20220;-81
2023/10/24 11:47:15;;;;;;;2.87;1.63;;;18.70;99.90;;;;;;7314993;19;20187;-82
2023/10/24 11:49:41;;;;;;;5.70;1.67;;;19.60;99.90;;;;;;7310959;19;20273;-81
2023/10/24 11:52:07;;;;;;;3.93;1.70;;;19.30;99.90;;;;;;7302691;19;20753;-82
2023/10/24 11:54:33;;;;;;;5.40;1.73;;;18.90;99.90;;;;;;7289951;19;20201;-82
2023/10/24 11:57:00;;;;;;;4.93;1.63;;;19.00;99.90;;;;;;7288466;19;20552;-82
2023/10/24 11:59:35;;;;;;;5.33;1.70;;;19.70;99.90;;;;;;7289710;19;20220;-82
2023/10/24 12:02:01;;;;;;;5.80;1.60;;;20.20;99.90;;;;;;7289420;19;20195;-81
2023/10/24 12:04:29;;;;;;;5.50;1.83;;;20.80;99.90;;;;;;7288421;19;20298;-82
2023/10/24 12:07:07;;;;;;;5.30;1.50;;;20.80;99.90;;;;;;7287458;19;20664;-82
2023/10/24 12:09:34;;;;;;;6.40;2.03;;;21.20;99.90;;;;;;7289186;19;20625;-82
2023/10/24 12:12:06;;;;;;;5.03;2.33;;;21.10;99.90;;;;;;7289739;19;20216;-82
2023/10/24 12:14:35;;;;;;;4.70;1.67;;;21.00;99.90;;;;;;7290047;19;20181;-82
2023/10/24 12:17:01;;;;;;;6.97;2.03;;;21.10;99.90;;;;;;7287416;19;20190;-81
2023/10/24 12:19:27;;;;;;;5.80;1.90;;;21.20;99.90;;;;;;7288439;19;20311;-82
2023/10/24 12:21:55;;;;;;;6.53;1.77;;;21.00;99.90;;;;;;7286933;19;20187;-82
2023/10/24 12:24:21;;;;;;;3.97;1.60;;;21.60;99.90;;;;;;7288722;19;20211;-82
2023/10/24 12:26:48;;;;;;;9.13;1.67;;;21.70;99.90;;;;;;7311008;19;20976;-82
2023/10/24 12:29:13;;;;;;;5.33;1.60;;;21.70;99.90;;;;;;7288753;19;20658;-82
2023/10/24 12:31:39;;;;;;;5.67;1.50;;;21.70;99.90;;;;;;7286118;19;20181;-82
2023/10/24 12:34:05;;;;;;;5.43;1.40;;;21.90;99.90;;;;;;7289043;19;20196;-82
2023/10/24 12:36:31;;;;;;;4.70;1.30;;;21.80;99.90;;;;;;7287750;19;20219;-82
2023/10/24 12:38:57;;;;;;;5.00;1.43;;;21.70;99.90;;;;;;7288134;19;20185;-81